createdAt,value
2023-06-26T00:00:58.059Z,96971.00
2023-06-26T00:03:25.361Z,96972.00
2023-06-26T00:05:52.682Z,96976.00
2023-06-26T00:08:19.920Z,96974.00
2023-06-26T00:10:47.513Z,96970.00
2023-06-26T00:13:14.783Z,96979.00
2023-06-26T00:15:42.033Z,96987.00
2023-06-26T00:18:09.315Z,96989.00
2023-06-26T00:20:36.856Z,96992.00
2023-06-26T00:23:08.665Z,96998.00
2023-06-26T00:25:36.108Z,97001.00
2023-06-26T00:28:03.601Z,96993.00
2023-06-26T00:30:30.814Z,96990.00
2023-06-26T00:32:58.094Z,96987.00
2023-06-26T00:35:25.327Z,96988.00
2023-06-26T00:37:52.613Z,96993.00
2023-06-26T00:40:20.917Z,96987.00
2023-06-26T00:42:48.156Z,96993.00
2023-06-26T00:45:15.709Z,96993.00
2023-06-26T00:47:43.487Z,96999.00
2023-06-26T00:50:10.975Z,97003.00
2023-06-26T00:52:38.893Z,97000.00
2023-06-26T00:55:06.479Z,96998.00
2023-06-26T00:57:33.993Z,96991.00
2023-06-26T01:00:02.823Z,97002.00
2023-06-26T01:02:34.369Z,96999.00
2023-06-26T01:05:04.648Z,96993.00
2023-06-26T01:07:33.289Z,97000.00
2023-06-26T01:10:00.679Z,96990.00
2023-06-26T01:12:27.954Z,96996.00
2023-06-26T01:14:55.284Z,96987.00
2023-06-26T01:17:22.651Z,96992.00
2023-06-26T01:19:50.685Z,96985.00
2023-06-26T01:22:35.255Z,96988.00
2023-06-26T01:25:39.524Z,96986.00
2023-06-26T01:28:07.801Z,96977.00
2023-06-26T01:30:37.318Z,96977.00
2023-06-26T01:33:05.175Z,96980.00
2023-06-26T01:35:32.890Z,96966.00
2023-06-26T01:42:14.628Z,96960.00
2023-06-26T01:45:13.207Z,96963.00
2023-06-26T01:48:13.178Z,96958.00
2023-06-26T01:51:13.595Z,96955.00
2023-06-26T01:57:15.284Z,96957.00
2023-06-26T01:59:43.850Z,96955.00
2023-06-26T02:02:11.291Z,96949.00
2023-06-26T02:04:38.559Z,96946.00
2023-06-26T02:07:05.940Z,96950.00
2023-06-26T02:09:33.289Z,96954.00
2023-06-26T02:12:00.510Z,96955.00
2023-06-26T02:14:27.796Z,96959.00
2023-06-26T02:16:55.029Z,96953.00
2023-06-26T02:19:22.669Z,96962.00
2023-06-26T02:21:53.050Z,96964.00
2023-06-26T02:24:20.317Z,96964.00
2023-06-26T02:26:47.568Z,96966.00
2023-06-26T02:29:14.866Z,96960.00
2023-06-26T02:31:42.263Z,96961.00
2023-06-26T02:34:10.800Z,96956.00
2023-06-26T02:36:38.007Z,96958.00
2023-06-26T02:39:05.526Z,96962.00
2023-06-26T02:41:32.777Z,96963.00
2023-06-26T02:44:00.067Z,96956.00
2023-06-26T02:46:27.354Z,96954.00
2023-06-26T02:48:54.626Z,96961.00
2023-06-26T02:51:21.873Z,96960.00
2023-06-26T02:53:49.075Z,96969.00
2023-06-26T02:56:16.319Z,96961.00
2023-06-26T02:58:43.557Z,96960.00
2023-06-26T03:01:10.857Z,96964.00
2023-06-26T03:03:41.681Z,96957.00
2023-06-26T03:06:09.609Z,96969.00
2023-06-26T03:08:38.767Z,96955.00
2023-06-26T03:11:09.248Z,96960.00
2023-06-26T03:13:37.233Z,96972.00
2023-06-26T03:16:05.194Z,96967.00
2023-06-26T03:18:32.485Z,96972.00
2023-06-26T03:21:00.821Z,96966.00
2023-06-26T03:23:28.103Z,96963.00
2023-06-26T03:25:55.370Z,96967.00
2023-06-26T03:28:22.597Z,96968.00
2023-06-26T03:30:49.856Z,96961.00
2023-06-26T03:33:17.141Z,96969.00
2023-06-26T03:35:44.425Z,96968.00
2023-06-26T03:38:11.720Z,96972.00
2023-06-26T03:40:39.202Z,96970.00
2023-06-26T03:43:06.702Z,96974.00
2023-06-26T03:45:33.982Z,96975.00
2023-06-26T03:48:01.326Z,96967.00
2023-06-26T03:50:28.765Z,96975.00
2023-06-26T03:52:56.023Z,96980.00
2023-06-26T03:55:24.692Z,96980.00
2023-06-26T03:57:52.002Z,96974.00
2023-06-26T04:00:19.348Z,96971.00
2023-06-26T04:02:46.646Z,96981.00
2023-06-26T04:05:13.967Z,96981.00
2023-06-26T04:07:41.249Z,96985.00
2023-06-26T04:10:08.943Z,96985.00
2023-06-26T04:12:36.174Z,96983.00
2023-06-26T04:15:03.754Z,96983.00
2023-06-26T04:17:31.040Z,96988.00
2023-06-26T04:19:58.376Z,96988.00
2023-06-26T04:22:26.821Z,96990.00
2023-06-26T04:24:54.091Z,96986.00
2023-06-26T04:27:21.360Z,96990.00
2023-06-26T04:29:48.545Z,96988.00
2023-06-26T04:32:15.765Z,96999.00
2023-06-26T04:34:46.002Z,96996.00
2023-06-26T04:37:17.478Z,96993.00
2023-06-26T04:39:44.858Z,96997.00
2023-06-26T04:42:14.984Z,96993.00
2023-06-26T04:44:42.454Z,96985.00
2023-06-26T04:47:10.418Z,96998.00
2023-06-26T04:49:39.357Z,97000.00
2023-06-26T04:52:06.901Z,97004.00
2023-06-26T04:54:34.113Z,97005.00
2023-06-26T04:57:01.349Z,97008.00
2023-06-26T04:59:28.630Z,97005.00
2023-06-26T05:01:55.941Z,97011.00
2023-06-26T05:04:23.819Z,97003.00
2023-06-26T05:06:51.298Z,97008.00
2023-06-26T05:09:18.507Z,97005.00
2023-06-26T05:11:45.855Z,97010.00
2023-06-26T05:14:14.426Z,97007.00
2023-06-26T05:16:41.708Z,97004.00
2023-06-26T05:19:08.912Z,97012.00
2023-06-26T05:21:36.524Z,97001.00
2023-06-26T05:24:04.613Z,97011.00
2023-06-26T05:26:32.027Z,97011.00
2023-06-26T05:28:59.433Z,97009.00
2023-06-26T05:31:27.035Z,97003.00
2023-06-26T05:33:55.505Z,97004.00
2023-06-26T05:36:23.986Z,97007.00
2023-06-26T05:38:51.640Z,97009.00
2023-06-26T05:41:19.131Z,97011.00
2023-06-26T05:43:46.336Z,97016.00
2023-06-26T05:46:13.559Z,97012.00
2023-06-26T05:48:40.838Z,97017.00
2023-06-26T05:51:08.628Z,97015.00
2023-06-26T05:53:36.141Z,97013.00
2023-06-26T05:56:03.595Z,97020.00
2023-06-26T05:58:32.039Z,97012.00
2023-06-26T06:00:59.241Z,97013.00
2023-06-26T06:03:26.611Z,97019.00
2023-06-26T06:05:53.918Z,97010.00
2023-06-26T06:08:21.144Z,97009.00
2023-06-26T06:10:48.372Z,97010.00
2023-06-26T06:13:15.608Z,97007.00
2023-06-26T06:15:42.866Z,97005.00
2023-06-26T06:18:10.151Z,97009.00
2023-06-26T06:20:38.190Z,97017.00
2023-06-26T06:23:05.869Z,97013.00
2023-06-26T06:25:33.099Z,97025.00
2023-06-26T06:28:00.311Z,97026.00
2023-06-26T06:30:43.441Z,97026.00
2023-06-26T06:33:11.994Z,97028.00
2023-06-26T06:35:39.281Z,97025.00
2023-06-26T06:38:06.750Z,97028.00
2023-06-26T06:40:34.054Z,97027.00
2023-06-26T06:43:01.330Z,97026.00
2023-06-26T06:45:28.655Z,97027.00
2023-06-26T06:47:55.952Z,97025.00
2023-06-26T06:50:23.183Z,97034.00
2023-06-26T06:52:50.410Z,97032.00
2023-06-26T06:55:17.644Z,97037.00
2023-06-26T06:57:44.856Z,97031.00
2023-06-26T07:00:14.880Z,97028.00
2023-06-26T07:02:47.395Z,97024.00
2023-06-26T07:05:14.746Z,97026.00
2023-06-26T07:07:42.193Z,97023.00
2023-06-26T07:10:11.647Z,97022.00
2023-06-26T07:12:38.950Z,97033.00
2023-06-26T07:15:07.519Z,97038.00
2023-06-26T07:17:35.495Z,97034.00
2023-06-26T07:20:07.365Z,97035.00
2023-06-26T07:22:35.041Z,97036.00
2023-06-26T07:25:02.470Z,97047.00
2023-06-26T07:27:29.976Z,97042.00
2023-06-26T07:29:57.229Z,97043.00
2023-06-26T07:32:24.543Z,97039.00
2023-06-26T07:34:51.802Z,97036.00
2023-06-26T07:37:19.085Z,97040.00
2023-06-26T07:39:46.297Z,97038.00
2023-06-26T07:42:13.592Z,97039.00
2023-06-26T07:44:42.550Z,97029.00
2023-06-26T07:47:10.310Z,97035.00
2023-06-26T07:49:37.622Z,97038.00
2023-06-26T07:52:05.435Z,97029.00
2023-06-26T07:54:32.758Z,97030.00
2023-06-26T07:57:07.842Z,97030.00
2023-06-26T07:59:35.868Z,97032.00
2023-06-26T08:02:03.431Z,97034.00
2023-06-26T08:04:33.343Z,97039.00
2023-06-26T08:07:01.450Z,97041.00
2023-06-26T08:09:30.176Z,97030.00
2023-06-26T08:11:57.946Z,97036.00
2023-06-26T08:14:25.405Z,97047.00
2023-06-26T08:16:52.794Z,97038.00
2023-06-26T08:19:20.381Z,97042.00
2023-06-26T08:21:48.283Z,97032.00
2023-06-26T08:24:19.781Z,97029.00
2023-06-26T08:26:48.661Z,97037.00
2023-06-26T08:29:16.274Z,97038.00
2023-06-26T08:31:44.714Z,97035.00
2023-06-26T08:34:12.200Z,97034.00
2023-06-26T08:36:39.966Z,97035.00
2023-06-26T08:39:07.386Z,97035.00
2023-06-26T08:41:46.784Z,97040.00
2023-06-26T08:44:14.077Z,97051.00
2023-06-26T08:46:41.594Z,97052.00
2023-06-26T08:49:21.734Z,97059.00
2023-06-26T08:52:12.248Z,97063.00
2023-06-26T08:54:45.361Z,97057.00
2023-06-26T08:57:13.331Z,97070.00
2023-06-26T08:59:40.682Z,97071.00
2023-06-26T09:02:08.793Z,97075.00
2023-06-26T09:04:37.001Z,97070.00
2023-06-26T09:07:04.606Z,97084.00
2023-06-26T09:09:31.908Z,97081.00
2023-06-26T09:11:59.140Z,97081.00
2023-06-26T09:14:26.497Z,97082.00
2023-06-26T09:16:53.955Z,97081.00
2023-06-26T09:19:21.435Z,97091.00
2023-06-26T09:21:51.905Z,97086.00
2023-06-26T09:24:19.234Z,97086.00
2023-06-26T09:26:46.434Z,97096.00
2023-06-26T09:29:14.169Z,97093.00
2023-06-26T09:31:43.057Z,97095.00
2023-06-26T09:34:11.455Z,97097.00
2023-06-26T09:36:40.626Z,97108.00
2023-06-26T09:39:12.301Z,97094.00
2023-06-26T09:41:41.862Z,97104.00
2023-06-26T09:44:12.732Z,97102.00
2023-06-26T09:46:40.716Z,97107.00
2023-06-26T09:49:12.654Z,97113.00
2023-06-26T09:51:41.984Z,97119.00
2023-06-26T09:54:13.060Z,97124.00
2023-06-26T09:56:40.381Z,97118.00
2023-06-26T09:59:08.382Z,97129.00
2023-06-26T10:01:40.952Z,97127.00
2023-06-26T10:04:08.403Z,97126.00
2023-06-26T10:06:38.258Z,97135.00
2023-06-26T10:09:06.378Z,97129.00
2023-06-26T10:11:48.338Z,97137.00
2023-06-26T10:14:18.097Z,97134.00
2023-06-26T10:16:47.587Z,97128.00
2023-06-26T10:19:17.448Z,97129.00
2023-06-26T10:21:44.912Z,97131.00
2023-06-26T10:24:14.438Z,97133.00
2023-06-26T10:26:45.306Z,97132.00
2023-06-26T10:29:14.103Z,97138.00
2023-06-26T10:31:46.832Z,97135.00
2023-06-26T10:34:14.526Z,97135.00
2023-06-26T10:36:42.881Z,97134.00
2023-06-26T10:39:10.522Z,97126.00
2023-06-26T10:41:46.429Z,97124.00
2023-06-26T10:44:21.853Z,97134.00
2023-06-26T10:46:54.045Z,97128.00
2023-06-26T10:49:22.175Z,97131.00
2023-06-26T10:51:53.085Z,97120.00
2023-06-26T10:54:23.241Z,97124.00
2023-06-26T10:56:59.241Z,97118.00
2023-06-26T10:59:37.274Z,97115.00
2023-06-26T11:02:13.690Z,97123.00
2023-06-26T11:04:57.526Z,97118.00
2023-06-26T11:07:36.329Z,97114.00
2023-06-26T11:10:19.531Z,97108.00
2023-06-26T11:12:55.684Z,97104.00
2023-06-26T11:15:32.384Z,97118.00
2023-06-26T11:18:07.143Z,97117.00
2023-06-26T11:20:34.430Z,97120.00
2023-06-26T11:23:01.834Z,97112.00
2023-06-26T11:25:29.124Z,97112.00
2023-06-26T11:27:56.361Z,97117.00
2023-06-26T11:30:27.201Z,97123.00
2023-06-26T11:32:55.557Z,97122.00
2023-06-26T11:35:31.058Z,97129.00
2023-06-26T11:38:03.952Z,97133.00
2023-06-26T11:40:37.374Z,97143.00
2023-06-26T11:43:05.292Z,97145.00
2023-06-26T11:45:33.521Z,97136.00
2023-06-26T11:48:01.710Z,97137.00
2023-06-26T11:50:29.360Z,97133.00
2023-06-26T11:52:57.744Z,97139.00
2023-06-26T11:55:26.063Z,97139.00
2023-06-26T11:57:59.185Z,97134.00
2023-06-26T12:00:26.631Z,97144.00
2023-06-26T12:02:54.710Z,97138.00
2023-06-26T12:05:22.227Z,97135.00
2023-06-26T12:07:50.438Z,97133.00
2023-06-26T12:10:22.826Z,97138.00
2023-06-26T12:12:50.093Z,97130.00
2023-06-26T12:15:17.802Z,97124.00
2023-06-26T12:17:45.212Z,97122.00
2023-06-26T12:20:22.973Z,97116.00
2023-06-26T12:22:50.883Z,97112.00
2023-06-26T12:25:26.077Z,97124.00
2023-06-26T12:27:53.385Z,97123.00
2023-06-26T12:30:20.661Z,97131.00
2023-06-26T12:32:48.258Z,97124.00
2023-06-26T12:35:17.078Z,97126.00
2023-06-26T12:37:45.823Z,97128.00
2023-06-26T12:40:25.198Z,97112.00
2023-06-26T12:42:52.828Z,97115.00
2023-06-26T12:47:51.483Z,97117.00
2023-06-26T12:50:18.795Z,97116.00
2023-06-26T12:52:46.062Z,97115.00
2023-06-26T12:55:13.296Z,97122.00
2023-06-26T12:57:40.617Z,97112.00
2023-06-26T13:00:08.493Z,97115.00
2023-06-26T13:02:35.800Z,97113.00
2023-06-26T13:05:04.668Z,97110.00
2023-06-26T13:07:32.071Z,97119.00
2023-06-26T13:09:59.427Z,97108.00
2023-06-26T13:12:26.682Z,97118.00
2023-06-26T13:14:53.917Z,97116.00
2023-06-26T13:17:21.438Z,97114.00
2023-06-26T13:19:48.722Z,97113.00
2023-06-26T13:22:15.945Z,97115.00
2023-06-26T13:24:43.207Z,97109.00
2023-06-26T13:27:10.450Z,97115.00
2023-06-26T13:29:37.736Z,97112.00
2023-06-26T13:32:05.334Z,97106.00
2023-06-26T13:34:32.649Z,97110.00
2023-06-26T13:37:01.254Z,97108.00
2023-06-26T13:39:28.666Z,97110.00
2023-06-26T13:41:55.916Z,97107.00
2023-06-26T13:44:31.928Z,97103.00
2023-06-26T13:47:03.394Z,97108.00
2023-06-26T13:49:30.895Z,97112.00
2023-06-26T13:51:58.115Z,97105.00
2023-06-26T13:54:25.332Z,97103.00
2023-06-26T13:56:52.554Z,97109.00
2023-06-26T13:59:21.825Z,97098.00
2023-06-26T14:01:50.576Z,97099.00
2023-06-26T14:04:17.879Z,97105.00
2023-06-26T14:06:46.401Z,97098.00
2023-06-26T14:09:13.690Z,97110.00
2023-06-26T14:11:40.972Z,97105.00
2023-06-26T14:14:08.237Z,97103.00
2023-06-26T14:16:35.592Z,97102.00
2023-06-26T14:19:02.952Z,97110.00
2023-06-26T14:21:30.431Z,97117.00
2023-06-26T14:23:57.714Z,97110.00
2023-06-26T14:26:25.015Z,97125.00
2023-06-26T14:28:52.229Z,97118.00
2023-06-26T14:31:19.600Z,97123.00
2023-06-26T14:33:46.869Z,97110.00
2023-06-26T14:36:14.117Z,97113.00
2023-06-26T14:38:41.330Z,97108.00
2023-06-26T14:41:09.364Z,97118.00
2023-06-26T14:43:37.178Z,97119.00
2023-06-26T14:46:04.936Z,97117.00
2023-06-26T14:48:32.799Z,97114.00
2023-06-26T14:51:01.313Z,97112.00
2023-06-26T14:53:28.586Z,97113.00
2023-06-26T14:55:56.176Z,97105.00
2023-06-26T14:58:23.905Z,97117.00
2023-06-26T15:00:51.147Z,97115.00
2023-06-26T15:03:18.575Z,97109.00
2023-06-26T15:05:45.919Z,97107.00
2023-06-26T15:08:13.162Z,97110.00
2023-06-26T15:10:40.682Z,97113.00
2023-06-26T15:13:08.768Z,97106.00
2023-06-26T15:15:36.044Z,97104.00
2023-06-26T15:18:03.348Z,97109.00
2023-06-26T15:20:30.669Z,97098.00
2023-06-26T15:22:59.240Z,97092.00
2023-06-26T15:25:26.546Z,97096.00
2023-06-26T15:27:53.825Z,97102.00
2023-06-26T15:30:21.081Z,97101.00
2023-06-26T15:32:48.585Z,97099.00
2023-06-26T15:35:15.905Z,97097.00
2023-06-26T15:37:43.132Z,97103.00
2023-06-26T15:40:12.117Z,97096.00
2023-06-26T15:42:53.812Z,97102.00
2023-06-26T15:45:25.366Z,97105.00
2023-06-26T15:47:53.287Z,97107.00
2023-06-26T15:50:21.559Z,97106.00
2023-06-26T15:52:49.560Z,97105.00
2023-06-26T15:55:17.186Z,97105.00
2023-06-26T15:57:44.577Z,97102.00
2023-06-26T16:00:13.317Z,97101.00
2023-06-26T16:02:40.934Z,97107.00
2023-06-26T16:05:08.814Z,97116.00
2023-06-26T16:07:51.654Z,97116.00
2023-06-26T16:10:23.657Z,97112.00
2023-06-26T16:12:50.949Z,97115.00
2023-06-26T16:15:18.182Z,97116.00
2023-06-26T16:17:45.425Z,97124.00
2023-06-26T16:20:12.911Z,97126.00
2023-06-26T16:22:40.953Z,97131.00
2023-06-26T16:25:08.720Z,97129.00
2023-06-26T16:27:35.970Z,97134.00
2023-06-26T16:30:03.299Z,97131.00
2023-06-26T16:32:30.594Z,97134.00
2023-06-26T16:34:57.932Z,97135.00
2023-06-26T16:37:25.177Z,97130.00
2023-06-26T16:39:52.870Z,97127.00
2023-06-26T16:42:21.454Z,97131.00
2023-06-26T16:44:48.757Z,97134.00
2023-06-26T16:47:19.764Z,97132.00
2023-06-26T16:49:47.281Z,97128.00
2023-06-26T16:52:15.595Z,97137.00
2023-06-26T16:54:42.832Z,97126.00
2023-06-26T16:57:10.079Z,97138.00
2023-06-26T16:59:37.369Z,97144.00
2023-06-26T17:02:05.752Z,97143.00
2023-06-26T17:04:32.992Z,97142.00
2023-06-26T17:07:00.356Z,97143.00
2023-06-26T17:09:27.678Z,97157.00
2023-06-26T17:11:54.912Z,97158.00
2023-06-26T17:14:22.144Z,97154.00
2023-06-26T17:16:49.429Z,97148.00
2023-06-26T17:19:16.646Z,97161.00
2023-06-26T17:21:48.438Z,97160.00
2023-06-26T17:24:16.075Z,97144.00
2023-06-26T17:26:44.365Z,97150.00
2023-06-26T17:29:11.607Z,97156.00
2023-06-26T17:31:41.296Z,97168.00
2023-06-26T17:34:09.159Z,97162.00
2023-06-26T17:36:36.463Z,97173.00
2023-06-26T17:39:04.532Z,97175.00
2023-06-26T17:41:31.965Z,97176.00
2023-06-26T17:43:59.179Z,97173.00
2023-06-26T17:46:26.591Z,97179.00
2023-06-26T17:48:55.323Z,97178.00
2023-06-26T17:51:22.810Z,97180.00
2023-06-26T17:53:51.938Z,97184.00
2023-06-26T17:56:19.370Z,97186.00
2023-06-26T17:58:48.183Z,97196.00
2023-06-26T18:01:15.561Z,97194.00
2023-06-26T18:03:43.030Z,97197.00
2023-06-26T18:06:10.369Z,97207.00
2023-06-26T18:08:37.689Z,97203.00
2023-06-26T18:11:04.966Z,97211.00
2023-06-26T18:13:33.084Z,97213.00
2023-06-26T18:16:00.909Z,97208.00
2023-06-26T18:18:28.174Z,97214.00
2023-06-26T18:20:55.403Z,97219.00
2023-06-26T18:23:22.732Z,97229.00
2023-06-26T18:25:49.969Z,97222.00
2023-06-26T18:28:17.226Z,97232.00
2023-06-26T18:30:44.463Z,97230.00
2023-06-26T18:33:11.674Z,97230.00
2023-06-26T18:35:39.334Z,97230.00
2023-06-26T18:38:09.947Z,97233.00
2023-06-26T18:40:37.259Z,97243.00
2023-06-26T18:43:05.022Z,97245.00
2023-06-26T18:45:33.364Z,97240.00
2023-06-26T18:48:00.759Z,97248.00
2023-06-26T18:50:29.444Z,97247.00
2023-06-26T18:52:56.684Z,97245.00
2023-06-26T18:55:23.927Z,97245.00
2023-06-26T18:57:51.495Z,97247.00
2023-06-26T19:00:19.570Z,97249.00
2023-06-26T19:02:47.737Z,97259.00
2023-06-26T19:05:20.478Z,97268.00
2023-06-26T19:07:48.298Z,97276.00
2023-06-26T19:10:17.674Z,97265.00
2023-06-26T19:12:47.695Z,97273.00
2023-06-26T19:15:15.016Z,97287.00
2023-06-26T19:17:42.395Z,97289.00
2023-06-26T19:20:10.090Z,97279.00
2023-06-26T19:22:37.430Z,97280.00
2023-06-26T19:25:05.094Z,97292.00
2023-06-26T19:27:32.476Z,97283.00
2023-06-26T19:29:59.758Z,97280.00
2023-06-26T19:32:27.061Z,97279.00
2023-06-26T19:34:54.314Z,97280.00
2023-06-26T19:37:21.557Z,97280.00
2023-06-26T19:39:48.799Z,97292.00
2023-06-26T19:42:16.299Z,97286.00
2023-06-26T19:44:43.562Z,97293.00
2023-06-26T19:47:10.869Z,97296.00
2023-06-26T19:49:38.130Z,97301.00
2023-06-26T19:52:05.723Z,97304.00
2023-06-26T19:54:32.926Z,97295.00
2023-06-26T19:57:00.158Z,97310.00
2023-06-26T19:59:28.664Z,97317.00
2023-06-26T20:01:56.196Z,97319.00
2023-06-26T20:04:23.763Z,97325.00
2023-06-26T20:06:51.161Z,97329.00
2023-06-26T20:09:18.438Z,97335.00
2023-06-26T20:11:45.703Z,97330.00
2023-06-26T20:14:12.950Z,97332.00
2023-06-26T20:16:40.205Z,97330.00
2023-06-26T20:19:07.669Z,97335.00
2023-06-26T20:21:35.000Z,97332.00
2023-06-26T20:24:02.278Z,97331.00
2023-06-26T20:26:29.506Z,97338.00
2023-06-26T20:28:56.732Z,97341.00
2023-06-26T20:31:25.599Z,97343.00
2023-06-26T20:33:52.824Z,97338.00
2023-06-26T20:36:20.172Z,97340.00
2023-06-26T20:38:47.400Z,97338.00
2023-06-26T20:41:14.802Z,97346.00
2023-06-26T20:43:43.007Z,97347.00
2023-06-26T20:46:10.769Z,97347.00
2023-06-26T20:48:38.165Z,97353.00
2023-06-26T20:51:05.694Z,97342.00
2023-06-26T20:53:33.116Z,97350.00
2023-06-26T20:56:01.013Z,97355.00
2023-06-26T20:58:28.263Z,97354.00
2023-06-26T21:00:55.515Z,97361.00
2023-06-26T21:03:22.847Z,97363.00
2023-06-26T21:05:50.194Z,97354.00
2023-06-26T21:08:17.409Z,97364.00
2023-06-26T21:10:44.901Z,97360.00
2023-06-26T21:13:12.132Z,97358.00
2023-06-26T21:15:40.028Z,97363.00
2023-06-26T21:18:07.506Z,97357.00
2023-06-26T21:20:34.802Z,97367.00
2023-06-26T21:23:02.016Z,97361.00
2023-06-26T21:25:29.312Z,97372.00
2023-06-26T21:27:56.539Z,97371.00
2023-06-26T21:30:23.813Z,97372.00
2023-06-26T21:32:51.098Z,97382.00
2023-06-26T21:35:43.014Z,97379.00
2023-06-26T21:38:07.237Z,97381.00
2023-06-26T21:40:34.530Z,97378.00
2023-06-26T21:43:01.740Z,97381.00
2023-06-26T21:45:29.054Z,97387.00
2023-06-26T21:47:56.288Z,97389.00
2023-06-26T21:50:23.544Z,97402.00
2023-06-26T21:52:50.857Z,97402.00
2023-06-26T21:55:18.120Z,97405.00
2023-06-26T21:57:45.331Z,97405.00
2023-06-26T22:00:16.516Z,97398.00
2023-06-26T22:02:43.868Z,97408.00
2023-06-26T22:05:12.015Z,97403.00
2023-06-26T22:07:47.091Z,97404.00
2023-06-26T22:10:22.858Z,97401.00
2023-06-26T22:12:50.164Z,97407.00
2023-06-26T22:15:17.506Z,97412.00
2023-06-26T22:17:56.486Z,97407.00
2023-06-26T22:20:24.584Z,97413.00
2023-06-26T22:22:52.492Z,97415.00
2023-06-26T22:25:20.523Z,97409.00
2023-06-26T22:27:49.995Z,97413.00
2023-06-26T22:30:18.632Z,97414.00
2023-06-26T22:32:46.621Z,97410.00
2023-06-26T22:35:14.522Z,97410.00
2023-06-26T22:37:42.112Z,97402.00
2023-06-26T22:40:12.178Z,97399.00
2023-06-26T22:42:40.485Z,97413.00
2023-06-26T22:45:09.591Z,97412.00
2023-06-26T22:47:37.946Z,97407.00
2023-06-26T22:50:06.971Z,97408.00
2023-06-26T22:52:34.226Z,97404.00
2023-06-26T22:55:01.654Z,97404.00
2023-06-26T22:57:29.401Z,97406.00
2023-06-26T22:59:56.630Z,97402.00
2023-06-26T23:02:24.049Z,97406.00
2023-06-26T23:04:51.442Z,97405.00
2023-06-26T23:07:21.176Z,97401.00
2023-06-26T23:09:49.700Z,97403.00
2023-06-26T23:12:17.276Z,97398.00
2023-06-26T23:14:44.667Z,97399.00
2023-06-26T23:17:12.674Z,97397.00
2023-06-26T23:19:41.791Z,97395.00
2023-06-26T23:22:12.471Z,97394.00
2023-06-26T23:24:41.211Z,97388.00
2023-06-26T23:27:11.454Z,97397.00
2023-06-26T23:29:40.261Z,97395.00
2023-06-26T23:32:08.549Z,97400.00
2023-06-26T23:34:40.305Z,97398.00
2023-06-26T23:37:09.206Z,97404.00
2023-06-26T23:39:39.495Z,97406.00
2023-06-26T23:42:07.548Z,97414.00
2023-06-26T23:44:35.295Z,97407.00
2023-06-26T23:47:07.042Z,97413.00
2023-06-26T23:49:36.150Z,97408.00
2023-06-26T23:52:04.340Z,97408.00
2023-06-26T23:54:32.323Z,97411.00
2023-06-26T23:56:59.969Z,97404.00
2023-06-26T23:59:27.316Z,97405.00
